sensor_id;sensor_type;location;lat;lon;timestamp;pressure;altitude;pressure_sealevel;temperature;humidity
73103;BME280;61294;65.988;29.172;2023-04-19T00:01:26;100513.88;;;-0.96;76.77
73103;BME280;61294;65.988;29.172;2023-04-19T00:03:54;100504.88;;;-1.01;77.12
73103;BME280;61294;65.988;29.172;2023-04-19T00:06:21;100505.44;;;-1.06;77.08
73103;BME280;61294;65.988;29.172;2023-04-19T00:08:47;100506.47;;;-1.03;77.31
73103;BME280;61294;65.988;29.172;2023-04-19T00:11:13;100503.78;;;-1.05;77.14
73103;BME280;61294;65.988;29.172;2023-04-19T00:13:38;100470.19;;;-1.29;77.14
73103;BME280;61294;65.988;29.172;2023-04-19T00:16:04;100491.75;;;-1.16;77.00
73103;BME280;61294;65.988;29.172;2023-04-19T00:18:30;100505.38;;;-1.19;77.21
73103;BME280;61294;65.988;29.172;2023-04-19T00:20:56;100498.63;;;-1.29;77.22
73103;BME280;61294;65.988;29.172;2023-04-19T00:23:22;100495.25;;;-1.28;77.21
73103;BME280;61294;65.988;29.172;2023-04-19T00:25:48;100484.03;;;-1.28;77.59
73103;BME280;61294;65.988;29.172;2023-04-19T00:28:14;100481.44;;;-1.28;77.84
73103;BME280;61294;65.988;29.172;2023-04-19T00:30:40;100480.41;;;-1.30;78.29
73103;BME280;61294;65.988;29.172;2023-04-19T00:33:06;100477.50;;;-1.35;77.88
73103;BME280;61294;65.988;29.172;2023-04-19T00:35:40;100472.69;;;-1.42;77.87
73103;BME280;61294;65.988;29.172;2023-04-19T00:38:08;100471.44;;;-1.47;77.92
73103;BME280;61294;65.988;29.172;2023-04-19T00:40:35;100473.81;;;-1.50;78.20
73103;BME280;61294;65.988;29.172;2023-04-19T00:43:01;100463.25;;;-1.53;77.97
73103;BME280;61294;65.988;29.172;2023-04-19T00:45:27;100449.53;;;-1.64;78.58
73103;BME280;61294;65.988;29.172;2023-04-19T00:47:53;100446.31;;;-1.74;78.25
73103;BME280;61294;65.988;29.172;2023-04-19T00:50:20;100443.69;;;-1.85;78.29
73103;BME280;61294;65.988;29.172;2023-04-19T00:52:46;100454.19;;;-1.84;78.44
73103;BME280;61294;65.988;29.172;2023-04-19T00:55:13;100441.81;;;-1.88;78.47
73103;BME280;61294;65.988;29.172;2023-04-19T00:57:39;100467.88;;;-1.85;78.91
73103;BME280;61294;65.988;29.172;2023-04-19T01:00:06;100458.53;;;-1.83;79.38
73103;BME280;61294;65.988;29.172;2023-04-19T01:02:34;100456.88;;;-1.82;78.85
73103;BME280;61294;65.988;29.172;2023-04-19T01:05:00;100450.00;;;-1.82;79.16
73103;BME280;61294;65.988;29.172;2023-04-19T01:07:26;100444.94;;;-1.80;79.02
73103;BME280;61294;65.988;29.172;2023-04-19T01:09:52;100446.66;;;-1.81;79.20
73103;BME280;61294;65.988;29.172;2023-04-19T01:12:18;100446.19;;;-1.87;79.34
73103;BME280;61294;65.988;29.172;2023-04-19T01:14:44;100459.19;;;-1.85;79.46
73103;BME280;61294;65.988;29.172;2023-04-19T01:17:10;100448.31;;;-1.93;79.54
73103;BME280;61294;65.988;29.172;2023-04-19T01:19:37;100451.13;;;-1.90;79.16
73103;BME280;61294;65.988;29.172;2023-04-19T01:22:03;100446.50;;;-1.94;79.13
73103;BME280;61294;65.988;29.172;2023-04-19T01:24:31;100428.31;;;-2.08;79.13
73103;BME280;61294;65.988;29.172;2023-04-19T01:26:56;100455.72;;;-1.98;79.14
73103;BME280;61294;65.988;29.172;2023-04-19T01:29:22;100458.66;;;-2.05;79.46
73103;BME280;61294;65.988;29.172;2023-04-19T01:31:48;100454.91;;;-2.09;79.55
73103;BME280;61294;65.988;29.172;2023-04-19T01:34:18;100448.09;;;-2.08;79.89
73103;BME280;61294;65.988;29.172;2023-04-19T01:36:44;100461.66;;;-2.11;79.31
73103;BME280;61294;65.988;29.172;2023-04-19T01:39:11;100452.66;;;-2.16;79.69
73103;BME280;61294;65.988;29.172;2023-04-19T01:41:37;100458.38;;;-2.20;79.53
73103;BME280;61294;65.988;29.172;2023-04-19T01:44:02;100445.47;;;-2.20;79.84
73103;BME280;61294;65.988;29.172;2023-04-19T01:46:28;100448.97;;;-2.19;79.82
73103;BME280;61294;65.988;29.172;2023-04-19T01:48:54;100437.72;;;-2.20;80.20
73103;BME280;61294;65.988;29.172;2023-04-19T01:51:20;100432.13;;;-2.26;80.03
73103;BME280;61294;65.988;29.172;2023-04-19T01:53:46;100432.34;;;-2.35;80.01
73103;BME280;61294;65.988;29.172;2023-04-19T01:56:18;100435.56;;;-2.37;80.71
73103;BME280;61294;65.988;29.172;2023-04-19T01:58:44;100442.78;;;-2.33;80.78
73103;BME280;61294;65.988;29.172;2023-04-19T02:01:10;100431.66;;;-2.32;80.76
73103;BME280;61294;65.988;29.172;2023-04-19T02:03:39;100422.88;;;-2.34;81.04
73103;BME280;61294;65.988;29.172;2023-04-19T02:06:05;100417.72;;;-2.34;80.92
73103;BME280;61294;65.988;29.172;2023-04-19T02:08:31;100410.06;;;-2.56;81.26
73103;BME280;61294;65.988;29.172;2023-04-19T02:10:56;100414.47;;;-2.44;81.28
73103;BME280;61294;65.988;29.172;2023-04-19T02:13:22;100420.84;;;-2.38;81.50
73103;BME280;61294;65.988;29.172;2023-04-19T02:15:48;100415.81;;;-2.37;81.59
73103;BME280;61294;65.988;29.172;2023-04-19T02:18:14;100415.91;;;-2.47;81.18
73103;BME280;61294;65.988;29.172;2023-04-19T02:20:42;100402.34;;;-2.45;81.53
73103;BME280;61294;65.988;29.172;2023-04-19T02:23:07;100410.31;;;-2.41;81.77
73103;BME280;61294;65.988;29.172;2023-04-19T02:25:33;100367.41;;;-2.63;81.66
73103;BME280;61294;65.988;29.172;2023-04-19T02:27:59;100385.81;;;-2.47;81.53
73103;BME280;61294;65.988;29.172;2023-04-19T02:30:25;100397.41;;;-2.41;81.58
73103;BME280;61294;65.988;29.172;2023-04-19T02:32:51;100393.03;;;-2.43;81.36
73103;BME280;61294;65.988;29.172;2023-04-19T02:35:16;100354.75;;;-2.60;81.56
73103;BME280;61294;65.988;29.172;2023-04-19T02:37:43;100385.81;;;-2.47;81.74
73103;BME280;61294;65.988;29.172;2023-04-19T02:40:09;100381.00;;;-2.54;81.78
73103;BME280;61294;65.988;29.172;2023-04-19T02:42:35;100333.16;;;-2.72;81.98
73103;BME280;61294;65.988;29.172;2023-04-19T02:45:00;100377.53;;;-2.43;82.06
73103;BME280;61294;65.988;29.172;2023-04-19T02:47:26;100375.97;;;-2.40;82.27
73103;BME280;61294;65.988;29.172;2023-04-19T02:49:52;100342.19;;;-2.55;82.20
73103;BME280;61294;65.988;29.172;2023-04-19T02:52:18;100369.03;;;-2.41;82.14
73103;BME280;61294;65.988;29.172;2023-04-19T02:54:43;100348.69;;;-2.49;82.04
73103;BME280;61294;65.988;29.172;2023-04-19T02:57:09;100319.97;;;-2.53;82.42
73103;BME280;61294;65.988;29.172;2023-04-19T02:59:35;100353.31;;;-2.33;82.30
73103;BME280;61294;65.988;29.172;2023-04-19T03:02:00;100360.06;;;-2.23;82.03
73103;BME280;61294;65.988;29.172;2023-04-19T03:04:26;100346.03;;;-2.27;82.12
73103;BME280;61294;65.988;29.172;2023-04-19T03:06:53;100349.72;;;-2.23;82.25
73103;BME280;61294;65.988;29.172;2023-04-19T03:09:19;100347.59;;;-2.17;82.06
73103;BME280;61294;65.988;29.172;2023-04-19T03:11:44;100334.78;;;-2.15;82.53
73103;BME280;61294;65.988;29.172;2023-04-19T03:14:10;100346.44;;;-1.97;81.75
73103;BME280;61294;65.988;29.172;2023-04-19T03:16:36;100339.94;;;-1.92;81.71
73103;BME280;61294;65.988;29.172;2023-04-19T03:19:02;100295.03;;;-2.05;81.24
73103;BME280;61294;65.988;29.172;2023-04-19T03:21:28;100333.75;;;-1.82;81.62
73103;BME280;61294;65.988;29.172;2023-04-19T03:23:55;100328.91;;;-1.77;81.27
73103;BME280;61294;65.988;29.172;2023-04-19T03:26:21;100336.19;;;-1.71;81.29
73103;BME280;61294;65.988;29.172;2023-04-19T03:28:47;100327.41;;;-1.62;81.33
73103;BME280;61294;65.988;29.172;2023-04-19T03:31:13;100318.22;;;-1.58;81.42
73103;BME280;61294;65.988;29.172;2023-04-19T03:33:39;100308.66;;;-1.59;81.22
73103;BME280;61294;65.988;29.172;2023-04-19T03:36:05;100328.09;;;-1.52;81.79
73103;BME280;61294;65.988;29.172;2023-04-19T03:38:31;100320.91;;;-1.57;81.88
73103;BME280;61294;65.988;29.172;2023-04-19T03:40:57;100325.03;;;-1.47;81.29
73103;BME280;61294;65.988;29.172;2023-04-19T03:43:23;100290.88;;;-1.54;81.46
73103;BME280;61294;65.988;29.172;2023-04-19T03:45:49;100320.69;;;-1.34;81.37
73103;BME280;61294;65.988;29.172;2023-04-19T03:48:15;100318.31;;;-1.31;81.17
73103;BME280;61294;65.988;29.172;2023-04-19T03:50:40;100318.66;;;-1.27;81.24
73103;BME280;61294;65.988;29.172;2023-04-19T03:53:06;100296.75;;;-1.32;81.32
73103;BME280;61294;65.988;29.172;2023-04-19T03:55:32;100324.81;;;-1.25;81.57
73103;BME280;61294;65.988;29.172;2023-04-19T03:57:58;100318.41;;;-1.18;81.62
73103;BME280;61294;65.988;29.172;2023-04-19T04:00:24;100307.47;;;-1.14;81.61
73103;BME280;61294;65.988;29.172;2023-04-19T04:02:50;100284.59;;;-1.08;81.38
73103;BME280;61294;65.988;29.172;2023-04-19T04:05:16;100293.31;;;-0.94;80.91
73103;BME280;61294;65.988;29.172;2023-04-19T04:07:42;100290.16;;;-0.76;79.04
73103;BME280;61294;65.988;29.172;2023-04-19T04:10:08;100275.03;;;-0.70;78.44
73103;BME280;61294;65.988;29.172;2023-04-19T04:12:33;100281.13;;;-0.56;78.71
73103;BME280;61294;65.988;29.172;2023-04-19T04:14:59;100274.75;;;-0.48;77.39
73103;BME280;61294;65.988;29.172;2023-04-19T04:17:25;100265.06;;;-0.37;77.22
73103;BME280;61294;65.988;29.172;2023-04-19T04:19:51;100267.50;;;-0.27;76.37
73103;BME280;61294;65.988;29.172;2023-04-19T04:22:17;100253.63;;;-0.27;76.65
73103;BME280;61294;65.988;29.172;2023-04-19T04:24:42;100261.88;;;-0.06;75.85
73103;BME280;61294;65.988;29.172;2023-04-19T04:27:09;100255.50;;;0.02;76.49
73103;BME280;61294;65.988;29.172;2023-04-19T04:29:35;100249.81;;;0.08;75.78
73103;BME280;61294;65.988;29.172;2023-04-19T04:32:08;100257.66;;;0.09;75.74
73103;BME280;61294;65.988;29.172;2023-04-19T04:34:35;100257.25;;;0.16;74.90
73103;BME280;61294;65.988;29.172;2023-04-19T04:37:02;100243.50;;;0.17;74.93
73103;BME280;61294;65.988;29.172;2023-04-19T04:39:28;100251.66;;;0.24;74.28
73103;BME280;61294;65.988;29.172;2023-04-19T04:41:54;100245.63;;;0.38;73.82
73103;BME280;61294;65.988;29.172;2023-04-19T04:44:22;100231.94;;;0.26;73.48
73103;BME280;61294;65.988;29.172;2023-04-19T04:46:48;100243.78;;;0.50;72.90
73103;BME280;61294;65.988;29.172;2023-04-19T04:49:14;100237.28;;;0.57;72.47
73103;BME280;61294;65.988;29.172;2023-04-19T04:51:40;100235.75;;;0.61;72.31
73103;BME280;61294;65.988;29.172;2023-04-19T04:54:05;100220.81;;;0.57;71.24
73103;BME280;61294;65.988;29.172;2023-04-19T04:56:31;100222.00;;;0.62;71.54
73103;BME280;61294;65.988;29.172;2023-04-19T04:58:57;100208.94;;;0.60;71.27
73103;BME280;61294;65.988;29.172;2023-04-19T05:01:23;100212.47;;;0.76;71.08
73103;BME280;61294;65.988;29.172;2023-04-19T05:03:49;100215.22;;;0.79;70.81
73103;BME280;61294;65.988;29.172;2023-04-19T05:06:16;100201.63;;;0.83;70.63
73103;BME280;61294;65.988;29.172;2023-04-19T05:08:43;100200.72;;;0.82;70.57
73103;BME280;61294;65.988;29.172;2023-04-19T05:11:09;100205.47;;;0.90;70.37
73103;BME280;61294;65.988;29.172;2023-04-19T05:13:34;100205.41;;;1.03;70.43
73103;BME280;61294;65.988;29.172;2023-04-19T05:16:00;100197.63;;;1.03;70.12
73103;BME280;61294;65.988;29.172;2023-04-19T05:18:26;100196.72;;;1.17;69.62
73103;BME280;61294;65.988;29.172;2023-04-19T05:20:52;100191.69;;;1.20;70.05
73103;BME280;61294;65.988;29.172;2023-04-19T05:23:18;100193.78;;;1.11;69.74
73103;BME280;61294;65.988;29.172;2023-04-19T05:25:43;100181.00;;;1.31;69.44
73103;BME280;61294;65.988;29.172;2023-04-19T05:28:09;100181.19;;;1.34;68.42
73103;BME280;61294;65.988;29.172;2023-04-19T05:30:35;100169.75;;;1.30;68.19
73103;BME280;61294;65.988;29.172;2023-04-19T05:33:01;100158.66;;;1.33;69.24
73103;BME280;61294;65.988;29.172;2023-04-19T05:35:27;100171.16;;;1.40;68.34
73103;BME280;61294;65.988;29.172;2023-04-19T05:37:52;100134.81;;;1.40;68.61
73103;BME280;61294;65.988;29.172;2023-04-19T05:40:18;100159.38;;;1.62;67.98
73103;BME280;61294;65.988;29.172;2023-04-19T05:42:44;100153.28;;;1.61;67.30
73103;BME280;61294;65.988;29.172;2023-04-19T05:45:10;100148.59;;;1.70;67.99
73103;BME280;61294;65.988;29.172;2023-04-19T05:47:36;100158.41;;;1.76;67.62
73103;BME280;61294;65.988;29.172;2023-04-19T05:50:02;100155.59;;;1.88;66.90
73103;BME280;61294;65.988;29.172;2023-04-19T05:52:28;100160.22;;;1.94;67.16
73103;BME280;61294;65.988;29.172;2023-04-19T05:54:54;100157.41;;;2.05;67.13
73103;BME280;61294;65.988;29.172;2023-04-19T05:57:20;100153.25;;;2.09;66.38
73103;BME280;61294;65.988;29.172;2023-04-19T05:59:46;100154.25;;;2.11;66.10
73103;BME280;61294;65.988;29.172;2023-04-19T06:02:12;100140.19;;;2.07;65.85
73103;BME280;61294;65.988;29.172;2023-04-19T06:04:37;100128.25;;;1.95;66.05
73103;BME280;61294;65.988;29.172;2023-04-19T06:07:03;100152.38;;;2.09;65.58
73103;BME280;61294;65.988;29.172;2023-04-19T06:09:29;100153.19;;;2.24;66.14
73103;BME280;61294;65.988;29.172;2023-04-19T06:11:55;100149.84;;;2.27;65.90
73103;BME280;61294;65.988;29.172;2023-04-19T06:14:21;100140.34;;;2.27;65.77
73103;BME280;61294;65.988;29.172;2023-04-19T06:16:47;100155.94;;;2.27;65.32
73103;BME280;61294;65.988;29.172;2023-04-19T06:19:13;100151.06;;;2.33;65.18
73103;BME280;61294;65.988;29.172;2023-04-19T06:21:39;100155.84;;;2.42;64.67
73103;BME280;61294;65.988;29.172;2023-04-19T06:24:05;100155.75;;;2.40;65.13
73103;BME280;61294;65.988;29.172;2023-04-19T06:26:31;100161.81;;;2.39;64.66
73103;BME280;61294;65.988;29.172;2023-04-19T06:28:57;100137.75;;;2.27;64.75
73103;BME280;61294;65.988;29.172;2023-04-19T06:31:23;100164.56;;;2.42;64.78
73103;BME280;61294;65.988;29.172;2023-04-19T06:33:49;100162.34;;;2.50;64.93
73103;BME280;61294;65.988;29.172;2023-04-19T06:36:14;100155.19;;;2.63;63.96
73103;BME280;61294;65.988;29.172;2023-04-19T06:38:40;100159.59;;;2.64;64.45
73103;BME280;61294;65.988;29.172;2023-04-19T06:41:09;100152.50;;;2.61;64.06
73103;BME280;61294;65.988;29.172;2023-04-19T06:43:35;100152.66;;;2.64;63.98
73103;BME280;61294;65.988;29.172;2023-04-19T06:46:02;100144.41;;;2.73;64.02
73103;BME280;61294;65.988;29.172;2023-04-19T06:48:29;100136.53;;;2.71;63.68
73103;BME280;61294;65.988;29.172;2023-04-19T06:50:55;100134.53;;;2.66;63.83
73103;BME280;61294;65.988;29.172;2023-04-19T06:53:22;100144.41;;;2.73;63.25
73103;BME280;61294;65.988;29.172;2023-04-19T06:55:48;100144.41;;;2.73;63.46
73103;BME280;61294;65.988;29.172;2023-04-19T07:00:39;100145.31;;;2.73;63.92
73103;BME280;61294;65.988;29.172;2023-04-19T07:03:04;100139.28;;;2.74;64.45
73103;BME280;61294;65.988;29.172;2023-04-19T07:05:30;100146.44;;;2.79;64.88
73103;BME280;61294;65.988;29.172;2023-04-19T07:07:57;100129.69;;;2.73;65.15
73103;BME280;61294;65.988;29.172;2023-04-19T07:10:22;100126.50;;;2.61;65.92
73103;BME280;61294;65.988;29.172;2023-04-19T07:12:49;100130.97;;;2.64;66.72
73103;BME280;61294;65.988;29.172;2023-04-19T07:15:15;100131.75;;;2.63;67.23
73103;BME280;61294;65.988;29.172;2023-04-19T07:17:41;100116.22;;;2.64;67.15
73103;BME280;61294;65.988;29.172;2023-04-19T07:20:07;100133.13;;;2.72;66.97
73103;BME280;61294;65.988;29.172;2023-04-19T07:22:33;100104.44;;;2.71;67.69
73103;BME280;61294;65.988;29.172;2023-04-19T07:24:59;100117.00;;;2.80;68.53
73103;BME280;61294;65.988;29.172;2023-04-19T07:27:25;100115.84;;;2.91;68.34
73103;BME280;61294;65.988;29.172;2023-04-19T07:29:51;100104.59;;;2.74;68.62
73103;BME280;61294;65.988;29.172;2023-04-19T07:32:17;100101.59;;;2.84;69.17
73103;BME280;61294;65.988;29.172;2023-04-19T07:34:43;100103.63;;;2.90;69.25
73103;BME280;61294;65.988;29.172;2023-04-19T07:37:10;100103.78;;;2.93;69.62
73103;BME280;61294;65.988;29.172;2023-04-19T07:39:37;100092.69;;;2.97;69.97
73103;BME280;61294;65.988;29.172;2023-04-19T07:42:03;100094.34;;;2.95;69.69
73103;BME280;61294;65.988;29.172;2023-04-19T07:44:29;100099.00;;;2.84;70.38
73103;BME280;61294;65.988;29.172;2023-04-19T07:46:54;100095.53;;;2.84;70.95
73103;BME280;61294;65.988;29.172;2023-04-19T07:49:20;100095.97;;;2.93;70.81
73103;BME280;61294;65.988;29.172;2023-04-19T07:51:46;100086.81;;;3.01;70.89
73103;BME280;61294;65.988;29.172;2023-04-19T07:54:12;100079.00;;;3.01;70.72
73103;BME280;61294;65.988;29.172;2023-04-19T07:56:37;100075.34;;;2.98;70.67
73103;BME280;61294;65.988;29.172;2023-04-19T07:59:03;100085.09;;;3.02;70.99
73103;BME280;61294;65.988;29.172;2023-04-19T08:01:29;100077.75;;;3.11;71.76
73103;BME280;61294;65.988;29.172;2023-04-19T08:03:55;100088.81;;;3.25;71.10
73103;BME280;61294;65.988;29.172;2023-04-19T08:06:21;100085.69;;;3.32;71.18
73103;BME280;61294;65.988;29.172;2023-04-19T08:08:47;100071.16;;;3.37;70.54
73103;BME280;61294;65.988;29.172;2023-04-19T08:11:13;100077.34;;;3.39;71.21
73103;BME280;61294;65.988;29.172;2023-04-19T08:13:38;100068.06;;;3.26;71.89
73103;BME280;61294;65.988;29.172;2023-04-19T08:16:05;100074.56;;;3.36;70.99
73103;BME280;61294;65.988;29.172;2023-04-19T08:18:31;100076.41;;;3.19;70.68
73103;BME280;61294;65.988;29.172;2023-04-19T08:20:57;100085.59;;;3.31;71.02
73103;BME280;61294;65.988;29.172;2023-04-19T08:23:23;100071.41;;;3.24;71.79
73103;BME280;61294;65.988;29.172;2023-04-19T08:25:49;100083.44;;;3.22;72.33
73103;BME280;61294;65.988;29.172;2023-04-19T08:28:16;100069.63;;;3.05;71.69
73103;BME280;61294;65.988;29.172;2023-04-19T08:30:42;100069.88;;;3.09;71.69
73103;BME280;61294;65.988;29.172;2023-04-19T08:33:08;100031.63;;;3.08;71.60
73103;BME280;61294;65.988;29.172;2023-04-19T08:35:36;100057.06;;;3.32;71.69
73103;BME280;61294;65.988;29.172;2023-04-19T08:38:02;100045.97;;;3.18;71.35
73103;BME280;61294;65.988;29.172;2023-04-19T08:40:32;100028.41;;;3.14;72.10
73103;BME280;61294;65.988;29.172;2023-04-19T08:42:58;100023.38;;;2.99;72.16
73103;BME280;61294;65.988;29.172;2023-04-19T08:45:27;100008.72;;;3.01;72.43
73103;BME280;61294;65.988;29.172;2023-04-19T08:47:55;100025.94;;;3.17;71.88
73103;BME280;61294;65.988;29.172;2023-04-19T08:50:21;100041.25;;;3.29;71.50
73103;BME280;61294;65.988;29.172;2023-04-19T08:52:47;100035.69;;;3.39;71.68
73103;BME280;61294;65.988;29.172;2023-04-19T08:55:14;100042.81;;;3.43;71.33
73103;BME280;61294;65.988;29.172;2023-04-19T08:57:40;100009.56;;;3.38;71.91
73103;BME280;61294;65.988;29.172;2023-04-19T09:00:07;100029.53;;;3.57;71.69
73103;BME280;61294;65.988;29.172;2023-04-19T09:02:51;100032.59;;;3.48;71.29
73103;BME280;61294;65.988;29.172;2023-04-19T09:05:19;100028.34;;;3.50;71.65
73103;BME280;61294;65.988;29.172;2023-04-19T09:07:45;100034.34;;;3.49;71.54
73103;BME280;61294;65.988;29.172;2023-04-19T09:10:14;100001.38;;;3.30;72.19
73103;BME280;61294;65.988;29.172;2023-04-19T09:12:40;99996.91;;;3.27;71.98
73103;BME280;61294;65.988;29.172;2023-04-19T09:15:08;99997.59;;;3.23;72.73
73103;BME280;61294;65.988;29.172;2023-04-19T09:17:38;100021.59;;;3.36;73.02
73103;BME280;61294;65.988;29.172;2023-04-19T09:20:05;99989.63;;;3.20;73.96
73103;BME280;61294;65.988;29.172;2023-04-19T09:22:32;100011.94;;;3.33;73.95
73103;BME280;61294;65.988;29.172;2023-04-19T09:24:59;100006.59;;;3.30;75.22
73103;BME280;61294;65.988;29.172;2023-04-19T09:27:28;99994.97;;;3.23;75.92
73103;BME280;61294;65.988;29.172;2023-04-19T09:29:55;99987.72;;;3.16;76.37
73103;BME280;61294;65.988;29.172;2023-04-19T09:32:21;99989.56;;;3.19;76.72
73103;BME280;61294;65.988;29.172;2023-04-19T09:34:55;99984.56;;;3.04;77.84
73103;BME280;61294;65.988;29.172;2023-04-19T09:37:22;99965.06;;;3.14;78.40
73103;BME280;61294;65.988;29.172;2023-04-19T09:39:48;99978.00;;;3.32;77.91
73103;BME280;61294;65.988;29.172;2023-04-19T09:42:14;99973.59;;;3.31;77.76
73103;BME280;61294;65.988;29.172;2023-04-19T09:44:39;99970.56;;;3.39;77.83
73103;BME280;61294;65.988;29.172;2023-04-19T09:47:25;99962.25;;;3.48;78.01
73103;BME280;61294;65.988;29.172;2023-04-19T09:50:17;99953.00;;;3.35;78.16
73103;BME280;61294;65.988;29.172;2023-04-19T09:52:45;99963.81;;;3.44;78.56
73103;BME280;61294;65.988;29.172;2023-04-19T09:55:13;99956.13;;;3.48;78.99
73103;BME280;61294;65.988;29.172;2023-04-19T09:57:38;99956.69;;;3.60;78.65
73103;BME280;61294;65.988;29.172;2023-04-19T10:00:05;99935.16;;;3.44;79.17
73103;BME280;61294;65.988;29.172;2023-04-19T10:02:33;99925.41;;;3.60;77.94
73103;BME280;61294;65.988;29.172;2023-04-19T10:04:59;99913.19;;;3.78;78.37
73103;BME280;61294;65.988;29.172;2023-04-19T10:07:26;99936.91;;;3.85;78.43
73103;BME280;61294;65.988;29.172;2023-04-19T10:09:54;99931.75;;;3.86;78.11
73103;BME280;61294;65.988;29.172;2023-04-19T10:12:25;99926.78;;;3.71;77.36
73103;BME280;61294;65.988;29.172;2023-04-19T10:14:54;99926.66;;;3.68;78.02
73103;BME280;61294;65.988;29.172;2023-04-19T10:17:22;99893.22;;;3.38;77.08
73103;BME280;61294;65.988;29.172;2023-04-19T10:19:56;99917.13;;;3.49;77.11
73103;BME280;61294;65.988;29.172;2023-04-19T10:22:24;99926.47;;;3.44;77.03
73103;BME280;61294;65.988;29.172;2023-04-19T10:25:10;99916.72;;;3.40;76.33
73103;BME280;61294;65.988;29.172;2023-04-19T10:27:41;99879.03;;;3.51;76.58
73103;BME280;61294;65.988;29.172;2023-04-19T10:30:22;99890.03;;;3.65;76.24
73103;BME280;61294;65.988;29.172;2023-04-19T10:32:57;99901.25;;;3.84;74.81
73103;BME280;61294;65.988;29.172;2023-04-19T10:35:33;99898.72;;;3.85;74.70
73103;BME280;61294;65.988;29.172;2023-04-19T10:38:13;99892.94;;;3.92;74.33
73103;BME280;61294;65.988;29.172;2023-04-19T10:43:23;99891.19;;;4.14;73.80
73103;BME280;61294;65.988;29.172;2023-04-19T10:45:50;99885.66;;;4.27;72.64
73103;BME280;61294;65.988;29.172;2023-04-19T10:51:03;99872.19;;;4.17;71.81
73103;BME280;61294;65.988;29.172;2023-04-19T11:01:42;99857.03;;;4.52;69.92
73103;BME280;61294;65.988;29.172;2023-04-19T11:04:11;99874.66;;;4.57;70.79
73103;BME280;61294;65.988;29.172;2023-04-19T11:09:43;99872.47;;;4.45;70.68
73103;BME280;61294;65.988;29.172;2023-04-19T11:12:11;99845.59;;;4.25;70.94
73103;BME280;61294;65.988;29.172;2023-04-19T11:14:46;99847.91;;;4.18;71.17
73103;BME280;61294;65.988;29.172;2023-04-19T11:19:51;99861.91;;;4.42;70.56
73103;BME280;61294;65.988;29.172;2023-04-19T11:22:17;99832.81;;;4.33;71.54
73103;BME280;61294;65.988;29.172;2023-04-19T11:24:46;99867.72;;;4.58;70.85
73103;BME280;61294;65.988;29.172;2023-04-19T11:27:12;99862.16;;;4.95;70.18
73103;BME280;61294;65.988;29.172;2023-04-19T11:29:38;99826.50;;;5.20;68.84
73103;BME280;61294;65.988;29.172;2023-04-19T11:32:04;99836.19;;;5.74;67.45
73103;BME280;61294;65.988;29.172;2023-04-19T11:34:35;99854.50;;;6.26;65.46
73103;BME280;61294;65.988;29.172;2023-04-19T11:37:02;99845.63;;;7.40;61.86
73103;BME280;61294;65.988;29.172;2023-04-19T11:39:28;99840.75;;;7.88;58.60
73103;BME280;61294;65.988;29.172;2023-04-19T11:41:53;99828.88;;;9.21;56.11
73103;BME280;61294;65.988;29.172;2023-04-19T11:44:19;99841.81;;;10.07;52.79
73103;BME280;61294;65.988;29.172;2023-04-19T11:46:58;99828.91;;;10.82;50.90
73103;BME280;61294;65.988;29.172;2023-04-19T11:49:31;99827.53;;;8.58;53.69
73103;BME280;61294;65.988;29.172;2023-04-19T11:52:02;99825.31;;;9.19;53.28
73103;BME280;61294;65.988;29.172;2023-04-19T11:54:30;99825.66;;;8.52;54.22
73103;BME280;61294;65.988;29.172;2023-04-19T11:57:06;99826.88;;;9.08;53.02
73103;BME280;61294;65.988;29.172;2023-04-19T11:59:36;99823.44;;;9.13;52.41
73103;BME280;61294;65.988;29.172;2023-04-19T12:02:09;99824.50;;;9.22;51.23
73103;BME280;61294;65.988;29.172;2023-04-19T12:04:35;99829.00;;;10.91;50.39
73103;BME280;61294;65.988;29.172;2023-04-19T12:07:03;99828.44;;;11.17;49.98
73103;BME280;61294;65.988;29.172;2023-04-19T12:09:31;99824.59;;;10.88;47.01
73103;BME280;61294;65.988;29.172;2023-04-19T12:11:57;99819.94;;;9.59;49.25
73103;BME280;61294;65.988;29.172;2023-04-19T12:14:23;99816.31;;;10.59;47.85
73103;BME280;61294;65.988;29.172;2023-04-19T12:17:10;99809.34;;;10.06;47.28
73103;BME280;61294;65.988;29.172;2023-04-19T12:19:47;99802.41;;;9.12;49.67
73103;BME280;61294;65.988;29.172;2023-04-19T12:22:17;99788.41;;;10.14;48.39
73103;BME280;61294;65.988;29.172;2023-04-19T12:24:50;99794.25;;;12.20;44.96
73103;BME280;61294;65.988;29.172;2023-04-19T12:27:17;99799.94;;;10.83;45.54
73103;BME280;61294;65.988;29.172;2023-04-19T12:29:43;99774.34;;;9.60;47.52
73103;BME280;61294;65.988;29.172;2023-04-19T12:32:10;99782.19;;;9.08;48.92
73103;BME280;61294;65.988;29.172;2023-04-19T12:34:36;99798.19;;;8.38;51.13
73103;BME280;61294;65.988;29.172;2023-04-19T12:37:01;99790.59;;;9.36;49.93
73103;BME280;61294;65.988;29.172;2023-04-19T12:39:29;99788.91;;;9.39;50.05
73103;BME280;61294;65.988;29.172;2023-04-19T12:41:55;99792.88;;;8.73;49.83
73103;BME280;61294;65.988;29.172;2023-04-19T12:44:21;99792.22;;;8.85;49.59
73103;BME280;61294;65.988;29.172;2023-04-19T12:46:48;99790.38;;;8.80;49.81
73103;BME280;61294;65.988;29.172;2023-04-19T12:49:17;99787.75;;;9.25;50.33
73103;BME280;61294;65.988;29.172;2023-04-19T12:51:44;99785.00;;;9.19;48.50
73103;BME280;61294;65.988;29.172;2023-04-19T12:54:12;99783.78;;;8.57;49.93
73103;BME280;61294;65.988;29.172;2023-04-19T12:56:38;99777.50;;;8.50;50.54
73103;BME280;61294;65.988;29.172;2023-04-19T12:59:03;99776.94;;;8.65;50.53
73103;BME280;61294;65.988;29.172;2023-04-19T13:01:31;99767.38;;;8.29;50.80
73103;BME280;61294;65.988;29.172;2023-04-19T13:03:57;99783.78;;;7.84;52.09
73103;BME280;61294;65.988;29.172;2023-04-19T13:06:23;99775.13;;;7.86;52.60
73103;BME280;61294;65.988;29.172;2023-04-19T13:08:48;99765.34;;;7.44;53.38